sensor_id;sensor_type;location;lat;lon;timestamp;pressure;altitude;pressure_sealevel;temperature;humidity
12486;BME280;6307;46.804;11.580;2022-09-17T00:01:14;-21320.31;;;15.60;57.98
12486;BME280;6307;46.804;11.580;2022-09-17T00:03:43;-21316.44;;;15.47;58.88
12486;BME280;6307;46.804;11.580;2022-09-17T00:06:13;-21315.53;;;15.44;58.69
12486;BME280;6307;46.804;11.580;2022-09-17T00:08:40;-21317.78;;;15.51;59.06
12486;BME280;6307;46.804;11.580;2022-09-17T00:11:08;-21313.59;;;15.37;58.06
12486;BME280;6307;46.804;11.580;2022-09-17T00:13:38;-21312.84;;;15.35;57.60
12486;BME280;6307;46.804;11.580;2022-09-17T00:16:05;-21314.19;;;15.39;55.92
12486;BME280;6307;46.804;11.580;2022-09-17T00:18:33;-21307.00;;;15.15;57.29
12486;BME280;6307;46.804;11.580;2022-09-17T00:21:01;-21307.00;;;15.15;59.63
12486;BME280;6307;46.804;11.580;2022-09-17T00:23:28;-21300.00;;;14.92;63.54
12486;BME280;6307;46.804;11.580;2022-09-17T00:25:54;-21303.41;;;15.03;58.20
12486;BME280;6307;46.804;11.580;2022-09-17T00:28:20;-21317.31;;;15.50;58.60
12486;BME280;6307;46.804;11.580;2022-09-17T00:30:46;-21315.09;;;15.42;57.83
12486;BME280;6307;46.804;11.580;2022-09-17T00:33:14;-21316.44;;;15.47;59.98
12486;BME280;6307;46.804;11.580;2022-09-17T00:35:42;-21318.06;;;15.52;57.00
12486;BME280;6307;46.804;11.580;2022-09-17T00:38:09;-21318.81;;;15.55;56.04
12486;BME280;6307;46.804;11.580;2022-09-17T00:40:36;-21320.75;;;15.61;56.48
12486;BME280;6307;46.804;11.580;2022-09-17T00:43:03;-21314.19;;;15.39;57.33
12486;BME280;6307;46.804;11.580;2022-09-17T00:45:34;-21315.09;;;15.42;56.99
12486;BME280;6307;46.804;11.580;2022-09-17T00:48:02;-21315.53;;;15.44;59.36
12486;BME280;6307;46.804;11.580;2022-09-17T00:50:40;-21305.06;;;15.09;57.69
12486;BME280;6307;46.804;11.580;2022-09-17T00:53:12;-21309.69;;;15.24;58.43
12486;BME280;6307;46.804;11.580;2022-09-17T00:55:56;-21307.59;;;15.17;58.27
12486;BME280;6307;46.804;11.580;2022-09-17T00:58:36;-21308.34;;;15.20;58.38
12486;BME280;6307;46.804;11.580;2022-09-17T01:01:03;-21311.94;;;15.32;59.59
12486;BME280;6307;46.804;11.580;2022-09-17T01:03:30;-21309.25;;;15.23;59.78
12486;BME280;6307;46.804;11.580;2022-09-17T01:14:59;-21309.25;;;15.23;60.12
12486;BME280;6307;46.804;11.580;2022-09-17T01:18:06;-21303.72;;;15.04;60.10
12486;BME280;6307;46.804;11.580;2022-09-17T01:21:40;-21311.19;;;15.29;58.88
12486;BME280;6307;46.804;11.580;2022-09-17T01:47:47;-21312.69;;;15.34;50.72
12486;BME280;6307;46.804;11.580;2022-09-17T01:50:25;-21314.47;;;15.40;50.49
12486;BME280;6307;46.804;11.580;2022-09-17T01:52:55;-21317.16;;;15.49;51.08
12486;BME280;6307;46.804;11.580;2022-09-17T01:55:26;-21317.63;;;15.51;51.51
12486;BME280;6307;46.804;11.580;2022-09-17T01:58:06;-21312.09;;;15.32;54.63
12486;BME280;6307;46.804;11.580;2022-09-17T02:00:44;-21311.03;;;15.29;50.84
12486;BME280;6307;46.804;11.580;2022-09-17T02:03:26;-21310.28;;;15.26;54.12
12486;BME280;6307;46.804;11.580;2022-09-17T02:06:05;-21314.78;;;15.41;59.47
12486;BME280;6307;46.804;11.580;2022-09-17T02:08:42;-21313.88;;;15.38;54.51
12486;BME280;6307;46.804;11.580;2022-09-17T02:11:14;-21309.25;;;15.23;52.99
12486;BME280;6307;46.804;11.580;2022-09-17T02:13:54;-21311.50;;;15.30;50.13
12486;BME280;6307;46.804;11.580;2022-09-17T02:16:29;-21312.38;;;15.33;53.04
12486;BME280;6307;46.804;11.580;2022-09-17T02:19:15;-21307.75;;;15.18;54.18
12486;BME280;6307;46.804;11.580;2022-09-17T02:30:16;-21307.16;;;15.16;48.98
12486;BME280;6307;46.804;11.580;2022-09-17T02:32:43;-21311.63;;;15.31;48.55
12486;BME280;6307;46.804;11.580;2022-09-17T02:35:10;-21310.75;;;15.28;47.93
12486;BME280;6307;46.804;11.580;2022-09-17T02:37:39;-21310.16;;;15.26;45.98
12486;BME280;6307;46.804;11.580;2022-09-17T02:40:07;-21307.75;;;15.18;47.67
12486;BME280;6307;46.804;11.580;2022-09-17T02:42:47;-21311.34;;;15.30;47.21
12486;BME280;6307;46.804;11.580;2022-09-17T02:51:35;-21310.44;;;15.27;45.74
12486;BME280;6307;46.804;11.580;2022-09-17T03:02:39;-21303.72;;;15.04;50.49
12486;BME280;6307;46.804;11.580;2022-09-17T03:05:24;-21297.44;;;14.83;50.80
12486;BME280;6307;46.804;11.580;2022-09-17T03:07:54;-21285.63;;;14.44;50.43
12486;BME280;6307;46.804;11.580;2022-09-17T03:10:23;-21295.81;;;14.78;53.21
12486;BME280;6307;46.804;11.580;2022-09-17T03:12:52;-21290.88;;;14.61;52.79
12486;BME280;6307;46.804;11.580;2022-09-17T03:15:18;-21293.13;;;14.69;52.63
12486;BME280;6307;46.804;11.580;2022-09-17T03:17:44;-21291.47;;;14.63;52.38
12486;BME280;6307;46.804;11.580;2022-09-17T03:20:11;-21290.72;;;14.61;54.49
12486;BME280;6307;46.804;11.580;2022-09-17T03:22:40;-21290.72;;;14.61;52.49
12486;BME280;6307;46.804;11.580;2022-09-17T03:25:07;-21301.63;;;14.97;51.76
12486;BME280;6307;46.804;11.580;2022-09-17T03:27:34;-21300.88;;;14.95;52.43
12486;BME280;6307;46.804;11.580;2022-09-17T03:30:00;-21302.69;;;15.01;53.94
12486;BME280;6307;46.804;11.580;2022-09-17T03:32:26;-21299.69;;;14.91;50.63
12486;BME280;6307;46.804;11.580;2022-09-17T03:34:52;-21301.47;;;14.97;49.83
12486;BME280;6307;46.804;11.580;2022-09-17T03:37:19;-21299.25;;;14.89;48.67
12486;BME280;6307;46.804;11.580;2022-09-17T03:39:46;-21297.91;;;14.85;47.64
12486;BME280;6307;46.804;11.580;2022-09-17T03:42:12;-21301.34;;;14.96;49.77
12486;BME280;6307;46.804;11.580;2022-09-17T03:44:38;-21304.63;;;15.07;50.01
12486;BME280;6307;46.804;11.580;2022-09-17T03:47:04;-21298.78;;;14.88;47.74
12486;BME280;6307;46.804;11.580;2022-09-17T03:49:30;-21301.94;;;14.98;46.67
12486;BME280;6307;46.804;11.580;2022-09-17T03:51:57;-21308.34;;;15.20;46.55
12486;BME280;6307;46.804;11.580;2022-09-17T03:54:23;-21306.88;;;15.15;47.27
12486;BME280;6307;46.804;11.580;2022-09-17T03:56:50;-21305.81;;;15.11;47.58
12486;BME280;6307;46.804;11.580;2022-09-17T03:59:16;-21304.31;;;15.06;48.25
12486;BME280;6307;46.804;11.580;2022-09-17T04:01:42;-21301.63;;;14.97;48.97
12486;BME280;6307;46.804;11.580;2022-09-17T04:04:08;-21301.63;;;14.97;48.56
12486;BME280;6307;46.804;11.580;2022-09-17T04:06:34;-21298.50;;;14.87;47.51
12486;BME280;6307;46.804;11.580;2022-09-17T04:09:00;-21301.03;;;14.95;51.12
12486;BME280;6307;46.804;11.580;2022-09-17T04:11:29;-21295.81;;;14.78;47.92
12486;BME280;6307;46.804;11.580;2022-09-17T04:13:55;-21291.31;;;14.63;46.35
12486;BME280;6307;46.804;11.580;2022-09-17T04:16:21;-21296.53;;;14.80;44.94
12486;BME280;6307;46.804;11.580;2022-09-17T04:18:47;-21296.69;;;14.81;49.15
12486;BME280;6307;46.804;11.580;2022-09-17T04:21:13;-21293.25;;;14.69;47.17
12486;BME280;6307;46.804;11.580;2022-09-17T04:23:39;-21294.75;;;14.74;48.50
12486;BME280;6307;46.804;11.580;2022-09-17T04:26:06;-21290.44;;;14.60;49.63
12486;BME280;6307;46.804;11.580;2022-09-17T04:28:32;-21295.50;;;14.77;47.10
12486;BME280;6307;46.804;11.580;2022-09-17T04:30:58;-21289.06;;;14.55;46.18
12486;BME280;6307;46.804;11.580;2022-09-17T04:33:24;-21297.44;;;14.83;48.22
12486;BME280;6307;46.804;11.580;2022-09-17T04:35:50;-21293.41;;;14.70;46.48
12486;BME280;6307;46.804;11.580;2022-09-17T04:38:18;-21294.47;;;14.73;46.73
12486;BME280;6307;46.804;11.580;2022-09-17T04:40:45;-21295.06;;;14.75;44.91
12486;BME280;6307;46.804;11.580;2022-09-17T04:43:11;-21298.19;;;14.86;45.28
12486;BME280;6307;46.804;11.580;2022-09-17T04:45:38;-21293.41;;;14.70;43.69
12486;BME280;6307;46.804;11.580;2022-09-17T04:48:04;-21294.31;;;14.73;43.68
12486;BME280;6307;46.804;11.580;2022-09-17T04:50:31;-21301.47;;;14.97;45.53
12486;BME280;6307;46.804;11.580;2022-09-17T04:52:57;-21300.59;;;14.94;46.29
12486;BME280;6307;46.804;11.580;2022-09-17T04:55:23;-21291.03;;;14.62;45.97
12486;BME280;6307;46.804;11.580;2022-09-17T04:57:52;-21287.72;;;14.51;46.72
12486;BME280;6307;46.804;11.580;2022-09-17T05:00:19;-21296.25;;;14.79;47.09
12486;BME280;6307;46.804;11.580;2022-09-17T05:02:48;-21293.25;;;14.69;49.27
12486;BME280;6307;46.804;11.580;2022-09-17T05:05:17;-21288.47;;;14.53;47.06
12486;BME280;6307;46.804;11.580;2022-09-17T05:07:44;-21291.31;;;14.63;49.01
12486;BME280;6307;46.804;11.580;2022-09-17T05:10:11;-21291.78;;;14.64;48.65
12486;BME280;6307;46.804;11.580;2022-09-17T05:12:39;-21292.53;;;14.67;48.42
12486;BME280;6307;46.804;11.580;2022-09-17T05:15:06;-21291.91;;;14.65;50.13
12486;BME280;6307;46.804;11.580;2022-09-17T05:17:32;-21289.22;;;14.56;50.55
12486;BME280;6307;46.804;11.580;2022-09-17T05:19:58;-21282.34;;;14.33;51.56
12486;BME280;6307;46.804;11.580;2022-09-17T05:22:25;-21284.44;;;14.40;51.00
12486;BME280;6307;46.804;11.580;2022-09-17T05:24:51;-21280.41;;;14.26;50.81
12486;BME280;6307;46.804;11.580;2022-09-17T05:27:17;-21286.97;;;14.48;52.05
12486;BME280;6307;46.804;11.580;2022-09-17T05:29:43;-21285.94;;;14.45;54.68
12486;BME280;6307;46.804;11.580;2022-09-17T05:32:09;-21273.38;;;14.03;50.69
12486;BME280;6307;46.804;11.580;2022-09-17T05:34:35;-21283.41;;;14.36;51.88
12486;BME280;6307;46.804;11.580;2022-09-17T05:37:01;-21276.38;;;14.13;54.31
12486;BME280;6307;46.804;11.580;2022-09-17T05:39:27;-21277.13;;;14.15;52.54
12486;BME280;6307;46.804;11.580;2022-09-17T05:41:54;-21281.16;;;14.29;51.98
12486;BME280;6307;46.804;11.580;2022-09-17T05:44:20;-21281.16;;;14.29;50.07
12486;BME280;6307;46.804;11.580;2022-09-17T05:46:47;-21268.59;;;13.87;56.72
12486;BME280;6307;46.804;11.580;2022-09-17T05:49:16;-21249.28;;;13.22;72.10
12486;BME280;6307;46.804;11.580;2022-09-17T05:51:42;-21232.22;;;12.65;90.97
12486;BME280;6307;46.804;11.580;2022-09-17T05:54:08;-21222.34;;;12.32;97.88
12486;BME280;6307;46.804;11.580;2022-09-17T05:56:35;-21217.09;;;12.15;100.00
12486;BME280;6307;46.804;11.580;2022-09-17T05:59:01;-21215.47;;;12.09;100.00
12486;BME280;6307;46.804;11.580;2022-09-17T06:01:28;-21216.97;;;12.14;100.00
12486;BME280;6307;46.804;11.580;2022-09-17T06:03:54;-21211.13;;;11.95;100.00
12486;BME280;6307;46.804;11.580;2022-09-17T06:06:20;-21214.84;;;12.07;100.00
12486;BME280;6307;46.804;11.580;2022-09-17T06:08:46;-21209.91;;;11.91;100.00
12486;BME280;6307;46.804;11.580;2022-09-17T06:11:12;-21214.09;;;12.05;100.00
12486;BME280;6307;46.804;11.580;2022-09-17T06:13:39;-21218.00;;;12.18;100.00
12486;BME280;6307;46.804;11.580;2022-09-17T06:16:07;-21221.16;;;12.28;100.00
12486;BME280;6307;46.804;11.580;2022-09-17T06:18:33;-21218.00;;;12.18;100.00
12486;BME280;6307;46.804;11.580;2022-09-17T06:21:01;-21209.91;;;11.91;100.00
12486;BME280;6307;46.804;11.580;2022-09-17T06:23:33;-21213.34;;;12.02;100.00
12486;BME280;6307;46.804;11.580;2022-09-17T06:25:59;-21216.66;;;12.13;100.00
12486;BME280;6307;46.804;11.580;2022-09-17T06:28:27;-21205.28;;;11.75;100.00
12486;BME280;6307;46.804;11.580;2022-09-17T06:30:54;-21219.66;;;12.23;100.00
12486;BME280;6307;46.804;11.580;2022-09-17T06:33:24;-21224.16;;;12.38;100.00
12486;BME280;6307;46.804;11.580;2022-09-17T06:36:10;-21229.22;;;12.55;100.00
12486;BME280;6307;46.804;11.580;2022-09-17T06:38:36;-21219.66;;;12.23;100.00
12486;BME280;6307;46.804;11.580;2022-09-17T06:41:03;-21220.56;;;12.26;100.00
12486;BME280;6307;46.804;11.580;2022-09-17T06:43:30;-21233.44;;;12.69;100.00
12486;BME280;6307;46.804;11.580;2022-09-17T06:46:01;-21234.31;;;12.72;100.00
12486;BME280;6307;46.804;11.580;2022-09-17T06:48:33;-21220.84;;;12.27;100.00
12486;BME280;6307;46.804;11.580;2022-09-17T06:51:05;-21231.19;;;12.62;100.00
12486;BME280;6307;46.804;11.580;2022-09-17T06:53:33;-21217.72;;;12.17;100.00
12486;BME280;6307;46.804;11.580;2022-09-17T06:56:02;-21217.72;;;12.17;100.00
12486;BME280;6307;46.804;11.580;2022-09-17T06:58:30;-21216.66;;;12.13;100.00
12486;BME280;6307;46.804;11.580;2022-09-17T07:01:00;-21221.91;;;12.31;100.00
12486;BME280;6307;46.804;11.580;2022-09-17T07:03:28;-21238.81;;;12.87;100.00
12486;BME280;6307;46.804;11.580;2022-09-17T07:05:55;-21245.41;;;13.09;100.00
12486;BME280;6307;46.804;11.580;2022-09-17T07:08:22;-21247.19;;;13.15;100.00
12486;BME280;6307;46.804;11.580;2022-09-17T07:10:50;-21229.97;;;12.58;100.00
12486;BME280;6307;46.804;11.580;2022-09-17T07:13:19;-21230.72;;;12.60;100.00
12486;BME280;6307;46.804;11.580;2022-09-17T07:15:55;-21235.81;;;12.77;100.00
12486;BME280;6307;46.804;11.580;2022-09-17T07:18:23;-21235.22;;;12.75;91.96
12486;BME280;6307;46.804;11.580;2022-09-17T07:20:54;-21238.06;;;12.85;65.05
12486;BME280;6307;46.804;11.580;2022-09-17T07:23:27;-21246.44;;;13.13;66.82
12486;BME280;6307;46.804;11.580;2022-09-17T07:25:59;-21244.97;;;13.08;69.49
12486;BME280;6307;46.804;11.580;2022-09-17T07:28:27;-21245.72;;;13.10;74.02
12486;BME280;6307;46.804;11.580;2022-09-17T07:30:54;-21240.91;;;12.94;73.31
12486;BME280;6307;46.804;11.580;2022-09-17T07:33:23;-21236.56;;;12.80;76.47
12486;BME280;6307;46.804;11.580;2022-09-17T07:35:56;-21239.25;;;12.89;77.86
12486;BME280;6307;46.804;11.580;2022-09-17T07:38:24;-21244.66;;;13.07;74.91
12486;BME280;6307;46.804;11.580;2022-09-17T07:43:29;-21250.63;;;13.27;73.73
12486;BME280;6307;46.804;11.580;2022-09-17T07:45:58;-21254.09;;;13.38;71.50
12486;BME280;6307;46.804;11.580;2022-09-17T07:48:26;-21249.44;;;13.23;65.98
12486;BME280;6307;46.804;11.580;2022-09-17T07:50:53;-21247.66;;;13.17;70.95
12486;BME280;6307;46.804;11.580;2022-09-17T07:53:20;-21251.84;;;13.31;51.44
12486;BME280;6307;46.804;11.580;2022-09-17T07:55:57;-21259.75;;;13.57;55.84
12486;BME280;6307;46.804;11.580;2022-09-17T07:58:33;-21256.78;;;13.47;50.76
12486;BME280;6307;46.804;11.580;2022-09-17T08:01:04;-21262.00;;;13.65;50.86
12486;BME280;6307;46.804;11.580;2022-09-17T08:03:33;-21270.97;;;13.95;52.86
12486;BME280;6307;46.804;11.580;2022-09-17T08:06:01;-21279.22;;;14.22;51.94
12486;BME280;6307;46.804;11.580;2022-09-17T08:08:33;-21279.06;;;14.22;52.41
12486;BME280;6307;46.804;11.580;2022-09-17T08:11:05;-21275.78;;;14.11;53.66
12486;BME280;6307;46.804;11.580;2022-09-17T08:13:36;-21273.97;;;14.05;50.26
12486;BME280;6307;46.804;11.580;2022-09-17T08:16:05;-21275.31;;;14.09;48.30
12486;BME280;6307;46.804;11.580;2022-09-17T08:18:34;-21271.44;;;13.96;47.06
12486;BME280;6307;46.804;11.580;2022-09-17T08:21:02;-21279.50;;;14.23;46.82
12486;BME280;6307;46.804;11.580;2022-09-17T08:23:31;-21288.03;;;14.52;44.34
12486;BME280;6307;46.804;11.580;2022-09-17T08:26:00;-21282.50;;;14.33;42.85
12486;BME280;6307;46.804;11.580;2022-09-17T08:28:28;-21281.91;;;14.31;41.57
12486;BME280;6307;46.804;11.580;2022-09-17T08:31:00;-21280.25;;;14.26;37.82
12486;BME280;6307;46.804;11.580;2022-09-17T08:33:32;-21288.31;;;14.53;40.03
12486;BME280;6307;46.804;11.580;2022-09-17T08:36:01;-21288.47;;;14.53;38.81
12486;BME280;6307;46.804;11.580;2022-09-17T08:38:29;-21293.56;;;14.70;39.42
12486;BME280;6307;46.804;11.580;2022-09-17T08:41:17;-21298.94;;;14.88;37.28
12486;BME280;6307;46.804;11.580;2022-09-17T08:46:41;-21287.88;;;14.51;38.03
12486;BME280;6307;46.804;11.580;2022-09-17T08:49:39;-21289.22;;;14.56;37.96
12486;BME280;6307;46.804;11.580;2022-09-17T08:55:49;-21293.72;;;14.71;37.51
12486;BME280;6307;46.804;11.580;2022-09-17T09:06:37;-21298.66;;;14.87;37.14
12486;BME280;6307;46.804;11.580;2022-09-17T09:09:14;-21306.25;;;15.13;36.88
12486;BME280;6307;46.804;11.580;2022-09-17T09:11:42;-21298.34;;;14.86;36.40
12486;BME280;6307;46.804;11.580;2022-09-17T09:16:45;-21308.22;;;15.19;36.45
12486;BME280;6307;46.804;11.580;2022-09-17T09:24:25;-21308.50;;;15.20;36.72
12486;BME280;6307;46.804;11.580;2022-09-17T09:27:17;-21312.69;;;15.34;36.46
12486;BME280;6307;46.804;11.580;2022-09-17T09:30:10;-21311.03;;;15.29;35.63
12486;BME280;6307;46.804;11.580;2022-09-17T09:35:25;-21320.16;;;15.59;33.90
12486;BME280;6307;46.804;11.580;2022-09-17T09:58:04;-21324.63;;;15.74;37.76
12486;BME280;6307;46.804;11.580;2022-09-17T10:00:43;-21312.09;;;15.32;37.52
12486;BME280;6307;46.804;11.580;2022-09-17T10:03:31;-21330.16;;;15.93;37.29
12486;BME280;6307;46.804;11.580;2022-09-17T10:06:05;-21327.47;;;15.84;36.05
12486;BME280;6307;46.804;11.580;2022-09-17T10:08:39;-21342.84;;;16.35;36.58
12486;BME280;6307;46.804;11.580;2022-09-17T10:11:30;-21319.84;;;15.58;33.64
12486;BME280;6307;46.804;11.580;2022-09-17T10:14:27;-21346.88;;;16.48;33.85
12486;BME280;6307;46.804;11.580;2022-09-17T10:25:11;-21388.66;;;17.88;31.81
12486;BME280;6307;46.804;11.580;2022-09-17T10:27:46;-21377.31;;;17.50;30.43
12486;BME280;6307;46.804;11.580;2022-09-17T10:30:15;-21368.22;;;17.20;30.53
12486;BME280;6307;46.804;11.580;2022-09-17T10:32:42;-21363.00;;;17.02;29.43
12486;BME280;6307;46.804;11.580;2022-09-17T10:35:29;-21362.09;;;16.99;29.76
12486;BME280;6307;46.804;11.580;2022-09-17T10:37:56;-21353.75;;;16.71;30.84
12486;BME280;6307;46.804;11.580;2022-09-17T10:43:22;-21375.66;;;17.45;29.92
12486;BME280;6307;46.804;11.580;2022-09-17T10:45:57;-21352.84;;;16.68;31.20
12486;BME280;6307;46.804;11.580;2022-09-17T10:48:27;-21352.69;;;16.68;30.71
12486;BME280;6307;46.804;11.580;2022-09-17T10:50:58;-21357.94;;;16.85;30.49
12486;BME280;6307;46.804;11.580;2022-09-17T10:53:27;-21359.13;;;16.89;31.51
12486;BME280;6307;46.804;11.580;2022-09-17T11:02:03;-21321.34;;;15.63;32.14
12486;BME280;6307;46.804;11.580;2022-09-17T11:04:50;-21368.50;;;17.21;30.48
12486;BME280;6307;46.804;11.580;2022-09-17T11:08:10;-21356.72;;;16.81;31.79
12486;BME280;6307;46.804;11.580;2022-09-17T11:10:44;-21359.13;;;16.89;31.75
12486;BME280;6307;46.804;11.580;2022-09-17T11:13:31;-21324.50;;;15.74;31.15
12486;BME280;6307;46.804;11.580;2022-09-17T11:16:13;-21347.63;;;16.51;32.69
12486;BME280;6307;46.804;11.580;2022-09-17T11:19:31;-21338.22;;;16.19;30.77
12486;BME280;6307;46.804;11.580;2022-09-17T11:42:56;-21356.44;;;16.80;30.71
12486;BME280;6307;46.804;11.580;2022-09-17T11:45:31;-21353.16;;;16.69;30.59
12486;BME280;6307;46.804;11.580;2022-09-17T11:48:06;-21351.34;;;16.63;30.89
12486;BME280;6307;46.804;11.580;2022-09-17T11:50:48;-21351.50;;;16.64;30.80
12486;BME280;6307;46.804;11.580;2022-09-17T11:53:44;-21358.66;;;16.88;31.53
12486;BME280;6307;46.804;11.580;2022-09-17T11:56:50;-21348.97;;;16.55;31.39
12486;BME280;6307;46.804;11.580;2022-09-17T11:59:53;-21344.34;;;16.40;31.62
12486;BME280;6307;46.804;11.580;2022-09-17T12:02:56;-21360.91;;;16.95;31.14
12486;BME280;6307;46.804;11.580;2022-09-17T12:05:34;-21356.56;;;16.81;30.98
12486;BME280;6307;46.804;11.580;2022-09-17T12:08:23;-21366.13;;;17.13;30.96
12486;BME280;6307;46.804;11.580;2022-09-17T12:11:14;-21354.03;;;16.72;30.86
12486;BME280;6307;46.804;11.580;2022-09-17T12:14:05;-21360.59;;;16.94;30.07
12486;BME280;6307;46.804;11.580;2022-09-17T12:16:48;-21370.59;;;17.28;29.78
12486;BME280;6307;46.804;11.580;2022-09-17T12:19:36;-21359.13;;;16.89;29.95
12486;BME280;6307;46.804;11.580;2022-09-17T12:22:17;-21372.38;;;17.34;30.11
12486;BME280;6307;46.804;11.580;2022-09-17T12:24:52;-21368.66;;;17.21;29.31
12486;BME280;6307;46.804;11.580;2022-09-17T12:30:10;-21345.38;;;16.43;30.81
12486;BME280;6307;46.804;11.580;2022-09-17T12:36:16;-21344.66;;;16.41;30.49
12486;BME280;6307;46.804;11.580;2022-09-17T12:56:09;-21325.38;;;15.77;31.20
12486;BME280;6307;46.804;11.580;2022-09-17T12:59:15;-21335.84;;;16.12;31.45
12486;BME280;6307;46.804;11.580;2022-09-17T13:01:47;-21306.88;;;15.15;30.47
12486;BME280;6307;46.804;11.580;2022-09-17T13:10:39;-21324.94;;;15.75;31.76
12486;BME280;6307;46.804;11.580;2022-09-17T13:13:55;-21332.84;;;16.02;31.68
12486;BME280;6307;46.804;11.580;2022-09-17T13:22:29;-21364.63;;;17.08;30.02
12486;BME280;6307;46.804;11.580;2022-09-17T13:25:07;-21348.06;;;16.52;30.31
12486;BME280;6307;46.804;11.580;2022-09-17T13:27:36;-21338.22;;;16.19;30.72
12486;BME280;6307;46.804;11.580;2022-09-17T13:30:05;-21340.59;;;16.27;31.35
12486;BME280;6307;46.804;11.580;2022-09-17T13:40:22;-21330.16;;;15.93;31.35
12486;BME280;6307;46.804;11.580;2022-09-17T13:43:07;-21330.16;;;15.93;31.32
12486;BME280;6307;46.804;11.580;2022-09-17T13:48:30;-21341.50;;;16.30;32.04
12486;BME280;6307;46.804;11.580;2022-09-17T13:54:04;-21370.16;;;17.26;31.29
12486;BME280;6307;46.804;11.580;2022-09-17T13:56:49;-21364.19;;;17.06;31.20
12486;BME280;6307;46.804;11.580;2022-09-17T13:59:33;-21353.91;;;16.72;31.03
12486;BME280;6307;46.804;11.580;2022-09-17T14:09:53;-21353.16;;;16.69;31.94
12486;BME280;6307;46.804;11.580;2022-09-17T14:21:24;-21338.53;;;16.20;32.74
12486;BME280;6307;46.804;11.580;2022-09-17T14:23:56;-21334.78;;;16.08;32.80
12486;BME280;6307;46.804;11.580;2022-09-17T14:31:51;-21319.72;;;15.58;33.17
12486;BME280;6307;46.804;11.580;2022-09-17T14:34:20;-21319.25;;;15.56;34.26
12486;BME280;6307;46.804;11.580;2022-09-17T14:36:50;-21323.00;;;15.69;34.35
12486;BME280;6307;46.804;11.580;2022-09-17T14:39:23;-21321.22;;;15.63;34.88
12486;BME280;6307;46.804;11.580;2022-09-17T14:41:54;-21308.50;;;15.20;33.90
12486;BME280;6307;46.804;11.580;2022-09-17T14:44:24;-21312.25;;;15.33;34.08
12486;BME280;6307;46.804;11.580;2022-09-17T14:47:09;-21323.59;;;15.71;34.63
12486;BME280;6307;46.804;11.580;2022-09-17T14:49:41;-21316.88;;;15.48;34.53
12486;BME280;6307;46.804;11.580;2022-09-17T14:52:37;-21308.66;;;15.21;34.84
12486;BME280;6307;46.804;11.580;2022-09-17T14:55:23;-21318.22;;;15.53;35.02
12486;BME280;6307;46.804;11.580;2022-09-17T14:57:53;-21310.16;;;15.26;34.79
12486;BME280;6307;46.804;11.580;2022-09-17T15:02:57;-21308.50;;;15.20;36.31
12486;BME280;6307;46.804;11.580;2022-09-17T15:05:32;-21315.69;;;15.44;34.69
12486;BME280;6307;46.804;11.580;2022-09-17T15:10:46;-21313.72;;;15.38;35.04
12486;BME280;6307;46.804;11.580;2022-09-17T15:13:17;-21324.78;;;15.75;35.05
12486;BME280;6307;46.804;11.580;2022-09-17T15:16:05;-21318.81;;;15.55;34.94
12486;BME280;6307;46.804;11.580;2022-09-17T15:18:56;-21318.97;;;15.55;35.10
12486;BME280;6307;46.804;11.580;2022-09-17T15:26:43;-21317.31;;;15.50;35.86
12486;BME280;6307;46.804;11.580;2022-09-17T15:29:24;-21309.69;;;15.24;36.01
12486;BME280;6307;46.804;11.580;2022-09-17T15:31:53;-21321.81;;;15.65;35.76
12486;BME280;6307;46.804;11.580;2022-09-17T15:34:20;-21316.44;;;15.47;36.75
12486;BME280;6307;46.804;11.580;2022-09-17T15:37:19;-21306.56;;;15.14;36.06
12486;BME280;6307;46.804;11.580;2022-09-17T15:39:51;-21315.22;;;15.43;36.79
12486;BME280;6307;46.804;11.580;2022-09-17T15:42:26;-21300.59;;;14.94;36.35
12486;BME280;6307;46.804;11.580;2022-09-17T15:45:20;-21311.78;;;15.31;36.63
12486;BME280;6307;46.804;11.580;2022-09-17T15:48:01;-21303.13;;;15.02;37.53
12486;BME280;6307;46.804;11.580;2022-09-17T15:50:33;-21296.09;;;14.79;36.35
12486;BME280;6307;46.804;11.580;2022-09-17T15:55:43;-21297.59;;;14.84;36.82
12486;BME280;6307;46.804;11.580;2022-09-17T16:08:50;-21289.38;;;14.56;35.81
12486;BME280;6307;46.804;11.580;2022-09-17T16:11:22;-21282.81;;;14.34;35.33
12486;BME280;6307;46.804;11.580;2022-09-17T16:13:54;-21289.69;;;14.57;35.35
12486;BME280;6307;46.804;11.580;2022-09-17T16:16:26;-21284.75;;;14.41;36.08
12486;BME280;6307;46.804;11.580;2022-09-17T16:19:01;-21284.91;;;14.41;36.08
12486;BME280;6307;46.804;11.580;2022-09-17T16:21:28;-21278.63;;;14.20;35.93
12486;BME280;6307;46.804;11.580;2022-09-17T16:23:55;-21288.78;;;14.54;36.06
12486;BME280;6307;46.804;11.580;2022-09-17T16:26:32;-21285.34;;;14.43;36.17
12486;BME280;6307;46.804;11.580;2022-09-17T16:29:04;-21276.06;;;14.12;36.59
12486;BME280;6307;46.804;11.580;2022-09-17T16:31:36;-21281.00;;;14.28;36.54
12486;BME280;6307;46.804;11.580;2022-09-17T16:34:02;-21272.31;;;13.99;38.02
12486;BME280;6307;46.804;11.580;2022-09-17T16:36:29;-21275.47;;;14.10;38.00
12486;BME280;6307;46.804;11.580;2022-09-17T16:38:57;-21279.66;;;14.24;38.19
12486;BME280;6307;46.804;11.580;2022-09-17T16:41:23;-21282.94;;;14.35;37.54
12486;BME280;6307;46.804;11.580;2022-09-17T16:43:49;-21278.47;;;14.20;38.46
12486;BME280;6307;46.804;11.580;2022-09-17T16:46:15;-21271.28;;;13.96;39.06
12486;BME280;6307;46.804;11.580;2022-09-17T16:48:48;-21273.22;;;14.02;39.16
12486;BME280;6307;46.804;11.580;2022-09-17T16:51:15;-21272.19;;;13.99;38.84
12486;BME280;6307;46.804;11.580;2022-09-17T16:53:41;-21266.94;;;13.81;38.27
12486;BME280;6307;46.804;11.580;2022-09-17T16:56:08;-21269.78;;;13.91;38.51
12486;BME280;6307;46.804;11.580;2022-09-17T16:58:35;-21268.28;;;13.86;39.44
12486;BME280;6307;46.804;11.580;2022-09-17T17:01:10;-21265.00;;;13.75;38.36
12486;BME280;6307;46.804;11.580;2022-09-17T17:03:38;-21265.59;;;13.77;38.76
12486;BME280;6307;46.804;11.580;2022-09-17T17:06:05;-21259.00;;;13.55;38.67
12486;BME280;6307;46.804;11.580;2022-09-17T17:08:41;-21265.00;;;13.75;38.95
12486;BME280;6307;46.804;11.580;2022-09-17T17:11:07;-21261.13;;;13.62;38.43
12486;BME280;6307;46.804;11.580;2022-09-17T17:13:34;-21259.00;;;13.55;38.17